Time;durP1;ratioP1;P1;durP2;ratioP2;P2;SDS_P1;SDS_P2;PMS_P1;PMS_P2;Temp;Humidity;BMP_temperature;BMP_pressure;BME280_temperature;BME280_humidity;BME280_pressure;Samples;Min_cycle;Max_cycle;Signal;HPM_P1;HPM_P2
2021/03/16 00:01:06;;;;;;;7.68;2.92;;;3.80;99.90;;;;;;5028933;28;20072;-72
2021/03/16 00:03:51;;;;;;;8.82;3.05;;;3.70;99.90;;;;;;5039695;28;20064;-72
2021/03/16 00:06:40;;;;;;;9.90;2.63;;;3.80;99.90;;;;;;5020873;28;20038;-71
2021/03/16 00:09:06;;;;;;;9.48;3.08;;;3.80;99.90;;;;;;5015567;28;20049;-71
2021/03/16 00:11:32;;;;;;;7.43;3.05;;;3.70;99.90;;;;;;5014623;28;20030;-71
2021/03/16 00:13:59;;;;;;;8.35;2.70;;;3.80;99.90;;;;;;5014431;28;20045;-72
2021/03/16 00:16:26;;;;;;;7.93;3.78;;;3.80;99.90;;;;;;5014543;28;20045;-71
2021/03/16 00:18:53;;;;;;;6.15;2.80;;;3.90;99.90;;;;;;5014855;28;20056;-72
2021/03/16 00:21:19;;;;;;;8.70;2.80;;;4.00;99.90;;;;;;5017303;28;20037;-72
2021/03/16 00:23:45;;;;;;;6.45;2.42;;;3.90;99.90;;;;;;5032943;28;20406;-72
2021/03/16 00:26:11;;;;;;;7.18;2.50;;;4.00;99.90;;;;;;5014892;28;20422;-72
2021/03/16 00:28:38;;;;;;;6.93;2.65;;;4.00;99.90;;;;;;5014016;28;20026;-72
2021/03/16 00:31:04;;;;;;;11.77;3.28;;;4.00;99.90;;;;;;5014534;28;20049;-71
2021/03/16 00:33:30;;;;;;;5.90;2.30;;;4.00;99.90;;;;;;5025102;28;20034;-71
2021/03/16 00:35:56;;;;;;;12.75;3.70;;;4.00;99.90;;;;;;5032496;28;20064;-72
2021/03/16 00:38:23;;;;;;;9.65;2.45;;;4.00;99.90;;;;;;5033232;28;20034;-71
2021/03/16 00:40:50;;;;;;;8.60;2.78;;;4.10;99.90;;;;;;5028801;28;20046;-71
2021/03/16 00:43:17;;;;;;;11.77;3.17;;;4.20;99.90;;;;;;5014751;28;20045;-71
2021/03/16 00:45:44;;;;;;;13.45;2.47;;;4.30;99.90;;;;;;5017541;28;20048;-71
2021/03/16 00:48:18;;;;;;;4.55;1.92;;;4.30;99.90;;;;;;5020694;28;20479;-71
2021/03/16 00:50:47;;;;;;;9.45;2.03;;;4.40;99.90;;;;;;5023921;28;20060;-71
2021/03/16 00:53:13;;;;;;;5.75;1.75;;;4.40;99.90;;;;;;5028865;28;20045;-71
2021/03/16 00:55:43;;;;;;;4.75;1.95;;;4.40;99.90;;;;;;5018870;28;20045;-72
2021/03/16 00:58:12;;;;;;;7.03;1.88;;;4.40;99.90;;;;;;5013239;28;20041;-72
2021/03/16 01:00:38;;;;;;;6.45;1.92;;;4.40;99.90;;;;;;5013792;28;20018;-72
2021/03/16 01:03:05;;;;;;;7.47;1.95;;;4.50;99.90;;;;;;5019989;28;20053;-72
2021/03/16 01:05:34;;;;;;;8.32;2.28;;;4.50;99.90;;;;;;5016283;28;20033;-72
2021/03/16 01:08:00;;;;;;;6.55;2.05;;;4.50;99.90;;;;;;5013488;28;20037;-72
2021/03/16 01:10:29;;;;;;;7.15;1.60;;;4.50;99.90;;;;;;5026461;28;20110;-72
2021/03/16 01:12:55;;;;;;;11.85;2.97;;;4.60;99.90;;;;;;5013079;28;20044;-72
2021/03/16 01:15:21;;;;;;;6.05;1.80;;;4.60;99.90;;;;;;5031395;28;20044;-72
2021/03/16 01:17:48;;;;;;;10.38;1.90;;;4.60;99.90;;;;;;5026270;28;20045;-72
2021/03/16 01:20:18;;;;;;;4.93;1.70;;;4.70;99.90;;;;;;5024947;28;20044;-72
2021/03/16 01:22:44;;;;;;;7.25;2.20;;;4.70;99.90;;;;;;5032498;28;20033;-72
2021/03/16 01:25:11;;;;;;;6.13;2.05;;;4.70;99.90;;;;;;5014604;28;20479;-72
2021/03/16 01:27:37;;;;;;;14.13;4.60;;;4.80;99.90;;;;;;5013549;28;20399;-72
2021/03/16 01:30:05;;;;;;;6.88;2.45;;;4.80;99.90;;;;;;5013097;28;20033;-72
2021/03/16 01:32:32;;;;;;;6.90;1.90;;;4.80;99.90;;;;;;5013896;28;20053;-72
2021/03/16 01:34:58;;;;;;;6.43;2.22;;;4.90;99.90;;;;;;5012850;28;20132;-72
2021/03/16 01:37:24;;;;;;;7.55;1.92;;;4.90;99.90;;;;;;5026585;28;20037;-72
2021/03/16 01:39:50;;;;;;;6.47;1.65;;;4.90;99.90;;;;;;5015840;28;20030;-72
2021/03/16 01:42:17;;;;;;;11.15;2.88;;;5.00;99.90;;;;;;5013843;28;20033;-72
2021/03/16 01:44:45;;;;;;;10.68;2.92;;;4.90;99.90;;;;;;5027972;28;20478;-72
2021/03/16 01:47:16;;;;;;;5.07;2.10;;;4.90;99.90;;;;;;5032123;28;20050;-72
2021/03/16 01:49:42;;;;;;;;;;;4.80;99.90;;;;;;5013733;28;20045;-72
2021/03/16 01:52:11;;;;;;;11.32;2.33;;;4.80;99.90;;;;;;5012607;28;19909;-72
2021/03/16 01:54:41;;;;;;;6.00;2.25;;;4.70;99.90;;;;;;5013428;28;20372;-72
2021/03/16 01:57:09;;;;;;;8.33;2.37;;;4.80;99.90;;;;;;5031549;28;20510;-71
2021/03/16 01:59:55;;;;;;;12.23;2.65;;;4.70;99.90;;;;;;5016385;28;20053;-71
2021/03/16 02:02:40;;;;;;;11.00;2.20;;;4.70;99.90;;;;;;5035443;28;20056;-71
2021/03/16 02:05:25;;;;;;;9.05;2.40;;;4.60;99.90;;;;;;5012853;28;20053;-71
2021/03/16 02:08:15;;;;;;;13.40;2.75;;;4.60;99.90;;;;;;5012773;28;20034;-71
2021/03/16 02:11:25;;;;;;;5.10;2.03;;;4.60;99.90;;;;;;5022887;28;20056;-71
2021/03/16 02:14:13;;;;;;;8.18;2.28;;;4.70;99.90;;;;;;5016717;28;20057;-71
2021/03/16 02:17:20;;;;;;;9.07;2.97;;;4.70;99.90;;;;;;5012421;28;20054;-71
2021/03/16 02:20:26;;;;;;;7.57;2.58;;;4.60;99.90;;;;;;5028999;28;20052;-71
2021/03/16 02:23:15;;;;;;;10.02;3.08;;;4.60;99.90;;;;;;5014722;28;20056;-71
2021/03/16 02:26:08;;;;;;;8.20;1.98;;;4.50;99.90;;;;;;5012258;28;20125;-72
2021/03/16 02:29:05;;;;;;;7.63;2.75;;;4.60;99.90;;;;;;5017726;28;20049;-72
2021/03/16 02:32:07;;;;;;;7.95;2.08;;;4.60;99.90;;;;;;5012170;28;20395;-72
2021/03/16 02:34:55;;;;;;;9.73;2.30;;;4.60;99.90;;;;;;5028650;28;20053;-72
2021/03/16 02:37:42;;;;;;;7.97;2.20;;;4.60;99.90;;;;;;5019286;28;20046;-74
2021/03/16 02:40:27;;;;;;;7.60;2.10;;;4.80;99.90;;;;;;5012752;28;20041;-72
2021/03/16 02:43:13;;;;;;;9.43;2.83;;;4.80;99.90;;;;;;5016336;28;20399;-72
2021/03/16 02:45:58;;;;;;;10.85;2.15;;;4.80;99.90;;;;;;5024520;28;20061;-72
2021/03/16 02:48:44;;;;;;;7.80;2.28;;;4.80;99.90;;;;;;5012490;28;20040;-72
2021/03/16 02:51:30;;;;;;;9.05;2.10;;;4.90;99.90;;;;;;5029135;28;20042;-72
2021/03/16 02:54:17;;;;;;;11.50;2.13;;;4.90;99.90;;;;;;5012411;28;20045;-72
2021/03/16 02:57:02;;;;;;;11.20;4.57;;;4.90;99.90;;;;;;5011592;28;20411;-72
2021/03/16 02:59:49;;;;;;;7.57;1.50;;;4.80;99.90;;;;;;5023459;28;20052;-72
2021/03/16 03:02:34;;;;;;;10.07;2.17;;;4.80;99.90;;;;;;5022633;28;20052;-72
2021/03/16 03:05:19;;;;;;;10.77;2.35;;;4.90;99.90;;;;;;5028708;28;20044;-72
2021/03/16 03:08:05;;;;;;;5.20;1.77;;;4.80;99.90;;;;;;5012049;28;20049;-72
2021/03/16 03:10:50;;;;;;;6.32;1.50;;;4.90;99.90;;;;;;5022206;28;20053;-72
2021/03/16 03:13:35;;;;;;;7.10;1.75;;;4.80;99.90;;;;;;5022703;28;20050;-72
2021/03/16 03:16:20;;;;;;;7.95;2.17;;;4.80;99.90;;;;;;5015875;28;20046;-72
2021/03/16 03:19:05;;;;;;;7.50;1.60;;;4.80;99.90;;;;;;5015610;28;20229;-72
2021/03/16 03:22:30;;;;;;;4.40;1.48;;;4.80;99.90;;;;;;5015186;28;20037;-72
2021/03/16 03:25:23;;;;;;;5.57;1.70;;;4.70;99.90;;;;;;5022335;28;20045;-72
2021/03/16 03:28:20;;;;;;;10.52;2.42;;;4.70;99.90;;;;;;5022755;28;20045;-72
2021/03/16 03:31:06;;;;;;;7.57;2.05;;;4.70;99.90;;;;;;5021819;28;20407;-72
2021/03/16 03:33:53;;;;;;;20.05;4.05;;;4.70;99.90;;;;;;5015542;28;20367;-71
2021/03/16 03:36:40;;;;;;;8.43;2.05;;;4.60;99.90;;;;;;5015947;28;20049;-72
2021/03/16 03:39:26;;;;;;;5.90;1.63;;;4.60;99.90;;;;;;5015406;28;20030;-72
2021/03/16 03:42:12;;;;;;;7.63;2.30;;;4.60;99.90;;;;;;5015674;28;20499;-72
2021/03/16 03:45:00;;;;;;;6.53;1.60;;;4.60;99.90;;;;;;5032720;28;20061;-72
2021/03/16 03:47:46;;;;;;;6.50;2.05;;;4.60;99.90;;;;;;5036889;28;20058;-72
2021/03/16 03:50:31;;;;;;;5.82;1.70;;;4.50;99.90;;;;;;5029981;28;20029;-72
2021/03/16 03:53:17;;;;;;;7.80;2.78;;;4.50;99.90;;;;;;5026495;28;20045;-72
2021/03/16 03:56:02;;;;;;;6.15;1.88;;;4.60;99.90;;;;;;5032868;28;20037;-72
2021/03/16 03:58:48;;;;;;;10.93;1.75;;;4.60;99.90;;;;;;5015783;28;20173;-72
2021/03/16 04:01:34;;;;;;;5.78;1.42;;;4.60;99.90;;;;;;5030587;28;20045;-73
2021/03/16 04:04:19;;;;;;;7.88;1.92;;;4.60;99.90;;;;;;5021104;28;20045;-72
2021/03/16 04:07:05;;;;;;;11.23;2.17;;;4.60;99.90;;;;;;5018044;28;20044;-72
2021/03/16 04:09:50;;;;;;;6.93;2.45;;;4.60;99.90;;;;;;5044493;28;20033;-72
2021/03/16 04:12:36;;;;;;;9.00;1.80;;;4.70;99.90;;;;;;5022051;28;20053;-72
2021/03/16 04:15:22;;;;;;;8.10;1.83;;;4.60;99.90;;;;;;5015194;28;20046;-72
2021/03/16 04:18:08;;;;;;;14.98;3.42;;;4.60;99.90;;;;;;5021074;28;20399;-72
2021/03/16 04:20:54;;;;;;;9.43;2.70;;;4.60;99.90;;;;;;5019873;28;20056;-72
2021/03/16 04:23:39;;;;;;;7.03;2.25;;;4.60;99.90;;;;;;5021516;28;20045;-72
2021/03/16 04:26:23;;;;;;;11.63;2.85;;;4.60;99.90;;;;;;5026158;28;20045;-72
2021/03/16 04:29:08;;;;;;;8.50;1.90;;;4.60;99.90;;;;;;5037641;28;20048;-72
2021/03/16 04:31:53;;;;;;;7.20;2.72;;;4.60;99.90;;;;;;5023548;28;20056;-72
2021/03/16 04:34:38;;;;;;;10.30;1.90;;;4.60;99.90;;;;;;5014559;28;20051;-71
2021/03/16 04:37:22;;;;;;;16.10;2.83;;;4.60;99.90;;;;;;5027337;28;20048;-71
2021/03/16 04:40:08;;;;;;;8.35;2.42;;;4.60;99.90;;;;;;5024804;28;20052;-71
2021/03/16 04:42:53;;;;;;;8.65;2.22;;;4.50;99.90;;;;;;5033404;28;20048;-71
2021/03/16 04:45:37;;;;;;;9.27;2.85;;;4.50;99.90;;;;;;5017651;28;20057;-71
2021/03/16 04:48:22;;;;;;;4.35;2.00;;;4.50;99.90;;;;;;5021354;28;20068;-71
2021/03/16 04:51:07;;;;;;;11.05;2.85;;;4.50;99.90;;;;;;5021776;28;20061;-71
2021/03/16 04:53:54;;;;;;;7.35;3.90;;;4.40;99.90;;;;;;5032103;28;20502;-71
2021/03/16 04:56:39;;;;;;;8.80;3.08;;;4.40;99.90;;;;;;5023511;28;20037;-71
2021/03/16 04:59:23;;;;;;;7.18;3.13;;;4.40;99.90;;;;;;5027816;28;20040;-72
2021/03/16 05:02:08;;;;;;;6.80;3.38;;;4.30;99.90;;;;;;5014076;28;20049;-71
2021/03/16 05:04:53;;;;;;;11.50;4.68;;;4.20;99.90;;;;;;5013781;28;20041;-72
2021/03/16 05:07:37;;;;;;;12.73;3.10;;;4.10;99.90;;;;;;5013939;28;20391;-71
2021/03/16 05:10:22;;;;;;;11.95;4.13;;;4.00;99.90;;;;;;5013469;28;20048;-71
2021/03/16 05:13:10;;;;;;;12.93;4.13;;;4.00;99.90;;;;;;5020181;28;20056;-71
2021/03/16 05:15:54;;;;;;;17.05;4.38;;;3.90;99.90;;;;;;5013221;28;20049;-71
2021/03/16 05:18:39;;;;;;;12.88;4.10;;;3.90;99.90;;;;;;5013710;28;20057;-71
2021/03/16 05:21:24;;;;;;;11.25;3.95;;;3.90;99.90;;;;;;5013463;28;20041;-71
2021/03/16 05:24:09;;;;;;;15.48;4.75;;;3.80;99.90;;;;;;5029608;28;20053;-72
2021/03/16 05:26:54;;;;;;;13.70;5.45;;;3.80;99.90;;;;;;5031775;28;20048;-71
2021/03/16 05:29:39;;;;;;;14.90;5.13;;;3.70;99.90;;;;;;5032026;28;20044;-72
2021/03/16 05:32:23;;;;;;;10.25;4.55;;;3.70;99.90;;;;;;5014757;28;20057;-72
2021/03/16 05:35:09;;;;;;;16.17;5.75;;;3.70;99.90;;;;;;5014630;28;20061;-72
2021/03/16 05:37:55;;;;;;;20.52;4.93;;;3.70;99.90;;;;;;5030579;28;20044;-72
2021/03/16 05:40:40;;;;;;;16.55;4.97;;;3.80;99.90;;;;;;5023969;28;20041;-73
2021/03/16 05:43:25;;;;;;;11.98;4.18;;;3.80;99.90;;;;;;5013109;28;20053;-73
2021/03/16 05:46:10;;;;;;;7.88;2.95;;;3.80;99.90;;;;;;5013132;28;20061;-72
2021/03/16 05:49:04;;;;;;;12.68;3.40;;;3.80;99.90;;;;;;5021024;28;20056;-72
2021/03/16 05:51:49;;;;;;;16.27;6.00;;;3.80;99.90;;;;;;5026519;28;20049;-72
2021/03/16 05:54:34;;;;;;;10.20;4.13;;;3.90;99.90;;;;;;5026797;28;20411;-72
2021/03/16 05:57:20;;;;;;;15.70;4.07;;;3.80;99.90;;;;;;5014910;28;20049;-72
2021/03/16 06:00:05;;;;;;;10.43;4.20;;;3.80;99.90;;;;;;5031881;28;20057;-72
2021/03/16 06:02:50;;;;;;;14.93;3.95;;;3.80;99.90;;;;;;5027617;28;20051;-72
2021/03/16 06:05:35;;;;;;;11.10;3.85;;;3.80;99.90;;;;;;5024374;28;20044;-73
2021/03/16 06:08:19;;;;;;;8.40;5.38;;;3.90;99.90;;;;;;5020279;28;20064;-77
2021/03/16 06:11:08;;;;;;;30.00;13.77;;;3.80;99.90;;;;;;5031069;28;20048;-73
2021/03/16 06:13:55;;;;;;;17.33;7.20;;;3.90;99.90;;;;;;5023388;28;20411;-72
2021/03/16 06:16:39;;;;;;;14.45;5.35;;;3.90;99.90;;;;;;5012917;28;20064;-72
2021/03/16 06:19:35;;;;;;;16.70;5.10;;;3.90;99.90;;;;;;5013149;28;20052;-72
2021/03/16 06:22:20;;;;;;;31.08;16.10;;;4.00;99.90;;;;;;5029770;28;20061;-72
2021/03/16 06:25:07;;;;;;;18.63;6.40;;;4.00;99.90;;;;;;5017788;28;20052;-72
2021/03/16 06:28:05;;;;;;;11.38;4.75;;;4.00;99.90;;;;;;5016229;28;20399;-72
2021/03/16 06:30:52;;;;;;;9.68;4.22;;;4.00;99.90;;;;;;5016469;28;20390;-72
2021/03/16 06:33:37;;;;;;;11.30;4.78;;;4.00;99.90;;;;;;5020109;28;20399;-72
2021/03/16 06:36:27;;;;;;;9.43;3.90;;;4.10;99.90;;;;;;5012408;28;20514;-72
2021/03/16 06:39:19;;;;;;;14.50;3.78;;;4.20;99.90;;;;;;5019132;28;20042;-72
2021/03/16 06:42:04;;;;;;;9.73;3.90;;;4.30;99.90;;;;;;5018627;28;20045;-72
2021/03/16 06:45:06;;;;;;;13.07;4.03;;;4.30;99.90;;;;;;5014267;28;20049;-73
2021/03/16 06:47:51;;;;;;;8.18;3.50;;;4.40;99.90;;;;;;5022675;28;20386;-71
2021/03/16 06:50:36;;;;;;;9.05;2.72;;;4.40;99.90;;;;;;5034846;28;20048;-72
2021/03/16 06:53:20;;;;;;;12.05;3.67;;;4.40;99.90;;;;;;5016050;28;20041;-72
2021/03/16 06:56:05;;;;;;;10.57;2.50;;;4.50;99.90;;;;;;5044003;28;20045;-72
2021/03/16 06:58:50;;;;;;;9.38;3.17;;;4.60;99.90;;;;;;5020920;28;20052;-71
2021/03/16 07:01:35;;;;;;;12.32;3.15;;;4.60;99.90;;;;;;5027362;28;20408;-72
2021/03/16 07:04:22;;;;;;;10.20;2.88;;;4.60;99.90;;;;;;5038247;28;20044;-72
2021/03/16 07:07:09;;;;;;;13.77;4.18;;;4.70;99.90;;;;;;5025950;28;20052;-72
2021/03/16 07:09:55;;;;;;;9.43;4.03;;;4.70;99.90;;;;;;5050716;28;20398;-72
2021/03/16 07:12:41;;;;;;;11.40;4.45;;;4.80;99.90;;;;;;5017899;28;20033;-71
2021/03/16 07:15:27;;;;;;;11.63;4.75;;;4.80;99.90;;;;;;5014942;28;20041;-71
2021/03/16 07:18:13;;;;;;;10.20;4.20;;;4.80;99.90;;;;;;5030034;28;20060;-72
2021/03/16 07:21:02;;;;;;;17.33;4.30;;;4.80;99.90;;;;;;5025691;28;20068;-73
2021/03/16 07:23:59;;;;;;;10.65;5.45;;;4.90;99.90;;;;;;5022437;28;20048;-73
2021/03/16 07:26:45;;;;;;;12.00;5.43;;;4.90;99.90;;;;;;5030993;28;20036;-73
2021/03/16 07:29:30;;;;;;;10.93;4.47;;;4.90;99.90;;;;;;5023969;28;20133;-74
2021/03/16 07:32:16;;;;;;;13.02;3.40;;;4.90;99.90;;;;;;5029469;28;20033;-73
2021/03/16 07:35:03;;;;;;;12.10;3.25;;;5.00;99.90;;;;;;5024135;28;20048;-74
2021/03/16 07:37:49;;;;;;;9.10;3.53;;;5.00;99.90;;;;;;5028165;28;20061;-74
2021/03/16 07:40:34;;;;;;;12.50;3.42;;;5.00;99.90;;;;;;5030593;28;20069;-73
2021/03/16 07:43:33;;;;;;;8.23;3.47;;;5.00;99.90;;;;;;5030204;28;20058;-74
2021/03/16 07:46:19;;;;;;;12.40;3.83;;;5.00;99.90;;;;;;5025315;28;20048;-74
2021/03/16 07:49:04;;;;;;;13.35;4.70;;;4.90;99.90;;;;;;5022414;28;20065;-74
2021/03/16 07:51:50;;;;;;;10.07;4.70;;;4.90;99.90;;;;;;5023570;28;20386;-73
2021/03/16 07:54:37;;;;;;;8.18;3.95;;;4.90;99.90;;;;;;5022321;28;20039;-74
2021/03/16 07:57:31;;;;;;;13.60;4.18;;;5.10;99.90;;;;;;5028435;28;20041;-75
2021/03/16 08:00:26;;;;;;;10.27;3.75;;;5.20;99.90;;;;;;5024553;28;20045;-74
2021/03/16 08:03:22;;;;;;;9.80;4.30;;;5.30;99.90;;;;;;5021703;28;20394;-74
2021/03/16 08:06:07;;;;;;;10.18;3.55;;;5.30;99.90;;;;;;5019869;28;20048;-74
2021/03/16 08:08:57;;;;;;;9.43;3.17;;;5.30;99.90;;;;;;5019684;28;20395;-74
2021/03/16 08:11:48;;;;;;;6.15;3.63;;;5.30;99.90;;;;;;5008376;28;20030;-74
2021/03/16 08:14:37;;;;;;;;;;;5.30;99.90;;;;;;5014767;28;20037;-73
2021/03/16 08:17:35;;;;;;;8.23;3.15;;;5.30;99.90;;;;;;5027078;28;20010;-74
2021/03/16 08:20:28;;;;;;;9.13;3.65;;;5.40;99.90;;;;;;5030404;28;20495;-74
2021/03/16 08:23:13;;;;;;;8.38;3.95;;;5.50;99.90;;;;;;5017933;28;20050;-74
2021/03/16 08:26:08;;;;;;;11.32;3.70;;;5.60;99.90;;;;;;5037833;28;20494;-74
2021/03/16 08:28:57;;;;;;;6.97;2.78;;;5.70;99.90;;;;;;5026375;28;20044;-74
2021/03/16 08:31:43;;;;;;;10.77;3.45;;;5.90;99.90;;;;;;5014307;28;20052;-74
2021/03/16 08:34:30;;;;;;;9.88;3.05;;;5.90;99.90;;;;;;5020973;28;20044;-74
2021/03/16 08:37:29;;;;;;;10.73;3.05;;;6.00;99.90;;;;;;5021008;28;20046;-74
2021/03/16 08:40:23;;;;;;;12.75;3.13;;;6.10;99.90;;;;;;5032649;28;20049;-74
2021/03/16 08:43:12;;;;;;;8.25;2.83;;;6.20;99.90;;;;;;5026339;28;20379;-74
2021/03/16 08:46:04;;;;;;;6.20;2.97;;;6.20;99.90;;;;;;5024654;28;20056;-74
2021/03/16 08:48:51;;;;;;;10.20;3.05;;;6.20;99.90;;;;;;5032965;28;20407;-74
2021/03/16 08:51:40;;;;;;;11.50;2.90;;;6.30;99.90;;;;;;5013960;28;20045;-74
2021/03/16 08:54:29;;;;;;;14.25;3.72;;;6.20;99.90;;;;;;5025248;28;20044;-75
2021/03/16 08:57:22;;;;;;;10.95;3.15;;;6.30;99.90;;;;;;5021923;28;20129;-74
2021/03/16 09:00:12;;;;;;;9.70;2.70;;;6.30;99.90;;;;;;5013823;28;20064;-74
2021/03/16 09:02:58;;;;;;;9.30;3.55;;;6.30;99.90;;;;;;5031955;28;20045;-74
2021/03/16 09:05:43;;;;;;;7.15;3.28;;;6.30;99.90;;;;;;5014398;28;20049;-74
2021/03/16 09:08:28;;;;;;;11.75;5.03;;;6.30;99.90;;;;;;5013174;28;20037;-74
2021/03/16 09:11:40;;;;;;;15.68;3.83;;;6.40;99.90;;;;;;5015302;28;20060;-74
2021/03/16 09:14:26;;;;;;;7.32;2.95;;;6.60;99.90;;;;;;5031292;28;20045;-74
2021/03/16 09:17:12;;;;;;;12.95;3.72;;;6.50;99.90;;;;;;5024022;28;20156;-75
2021/03/16 09:20:12;;;;;;;6.47;2.47;;;6.50;99.90;;;;;;5019244;28;20074;-74
2021/03/16 09:23:08;;;;;;;7.13;3.17;;;6.60;99.90;;;;;;5012461;28;20041;-74
2021/03/16 09:25:56;;;;;;;11.07;3.55;;;6.70;99.70;;;;;;5030898;28;20044;-74
2021/03/16 09:28:41;;;;;;;7.72;3.40;;;6.70;97.90;;;;;;5013566;28;20506;-74
2021/03/16 09:31:26;;;;;;;13.48;5.05;;;6.70;97.80;;;;;;5013539;28;20050;-74
2021/03/16 09:34:13;;;;;;;11.25;4.38;;;6.80;97.20;;;;;;5013254;28;20045;-74
2021/03/16 09:37:03;;;;;;;9.98;3.28;;;6.70;96.40;;;;;;5021380;28;20048;-74
2021/03/16 09:39:30;;;;;;;10.13;3.83;;;6.70;95.70;;;;;;5025557;28;20030;-74
2021/03/16 09:42:13;;;;;;;5.10;2.95;;;6.90;95.70;;;;;;5019768;28;20044;-74
2021/03/16 09:44:48;;;;;;;7.60;2.83;;;7.00;94.50;;;;;;5013107;28;20022;-74
2021/03/16 09:47:25;;;;;;;8.93;3.10;;;6.90;94.60;;;;;;5022169;28;20048;-74
2021/03/16 09:50:07;;;;;;;10.25;3.22;;;6.90;94.50;;;;;;5022429;28;20387;-74
2021/03/16 09:52:34;;;;;;;13.07;3.20;;;7.10;93.60;;;;;;5030374;28;20029;-74
2021/03/16 09:55:00;;;;;;;6.43;2.63;;;7.00;93.50;;;;;;5029986;28;20133;-74
2021/03/16 09:57:37;;;;;;;11.32;3.85;;;7.10;93.60;;;;;;5020470;28;20145;-74
2021/03/16 10:00:10;;;;;;;8.70;3.28;;;7.20;92.90;;;;;;5011313;28;20034;-74
2021/03/16 10:02:39;;;;;;;12.77;5.07;;;7.20;92.30;;;;;;5020695;28;20042;-74
2021/03/16 10:05:13;;;;;;;8.70;2.65;;;7.10;91.80;;;;;;5011924;28;20281;-74
2021/03/16 10:07:40;;;;;;;6.05;2.65;;;7.40;91.90;;;;;;5011943;28;20035;-74
2021/03/16 10:10:12;;;;;;;9.27;2.63;;;7.40;90.90;;;;;;5016521;28;20033;-73
2021/03/16 10:12:48;;;;;;;9.10;3.13;;;7.40;88.90;;;;;;5022357;28;20357;-73
2021/03/16 10:15:21;;;;;;;12.73;2.47;;;7.40;89.80;;;;;;5012305;28;20046;-74
2021/03/16 10:17:48;;;;;;;9.98;3.03;;;7.60;90.30;;;;;;5029529;28;20044;-74
2021/03/16 10:20:21;;;;;;;10.63;2.20;;;7.60;88.60;;;;;;5015587;28;20034;-74
2021/03/16 10:22:57;;;;;;;9.77;2.38;;;7.70;89.40;;;;;;5011611;28;20046;-73
2021/03/16 10:25:25;;;;;;;9.27;3.17;;;7.70;88.50;;;;;;5025563;28;20057;-74
2021/03/16 10:28:00;;;;;;;10.18;2.72;;;7.50;87.60;;;;;;5024064;28;20037;-74
2021/03/16 10:30:32;;;;;;;10.43;2.45;;;7.30;87.30;;;;;;5029665;28;20053;-73
2021/03/16 10:32:59;;;;;;;8.48;2.22;;;7.30;90.00;;;;;;5020159;28;20395;-74
2021/03/16 10:35:27;;;;;;;7.60;2.30;;;7.20;88.30;;;;;;5021195;28;20033;-73
2021/03/16 10:37:53;;;;;;;7.25;1.98;;;7.30;89.90;;;;;;5030241;28;20048;-73
2021/03/16 10:40:20;;;;;;;7.15;2.03;;;7.40;91.00;;;;;;5028940;28;20041;-74
2021/03/16 10:42:47;;;;;;;9.07;2.25;;;7.40;90.60;;;;;;5027588;28;20347;-73
2021/03/16 10:45:14;;;;;;;10.50;2.85;;;7.60;90.10;;;;;;5011032;28;20506;-72
2021/03/16 10:47:41;;;;;;;8.38;2.20;;;7.50;89.70;;;;;;5011757;28;20053;-74
2021/03/16 10:50:08;;;;;;;10.68;2.45;;;7.60;88.10;;;;;;5018656;28;20029;-74
2021/03/16 10:52:34;;;;;;;6.68;1.95;;;7.80;88.80;;;;;;5028373;28;20046;-74
2021/03/16 10:55:01;;;;;;;11.90;1.60;;;8.10;86.40;;;;;;5016756;28;20030;-74
2021/03/16 10:57:27;;;;;;;7.75;2.05;;;8.30;85.80;;;;;;5011824;28;20030;-74
2021/03/16 10:59:54;;;;;;;5.95;1.70;;;8.50;83.70;;;;;;5011949;28;20371;-73
2021/03/16 11:02:20;;;;;;;10.10;1.98;;;8.70;78.70;;;;;;5012105;28;20053;-74
2021/03/16 11:04:47;;;;;;;7.35;2.03;;;8.50;80.40;;;;;;5011828;28;20045;-73
2021/03/16 11:07:13;;;;;;;7.30;2.03;;;8.80;81.00;;;;;;5025899;28;20044;-73
2021/03/16 11:09:39;;;;;;;4.03;1.92;;;8.70;78.80;;;;;;5028240;28;20038;-74
2021/03/16 11:12:06;;;;;;;7.38;1.92;;;8.80;78.90;;;;;;5011584;28;20337;-74
2021/03/16 11:14:32;;;;;;;4.43;1.73;;;8.80;78.80;;;;;;5012506;28;20030;-74
2021/03/16 11:16:59;;;;;;;6.18;2.08;;;8.90;76.10;;;;;;5023879;28;20044;-73
2021/03/16 11:19:25;;;;;;;5.18;1.83;;;8.70;75.50;;;;;;5016497;28;20046;-73
2021/03/16 11:21:52;;;;;;;3.95;1.38;;;8.60;74.60;;;;;;5011701;28;20033;-73
2021/03/16 11:24:19;;;;;;;4.68;1.30;;;8.50;72.30;;;;;;5021349;28;20041;-74
2021/03/16 11:26:46;;;;;;;6.55;2.75;;;8.30;69.00;;;;;;5017541;28;20045;-74
2021/03/16 11:29:13;;;;;;;4.63;1.50;;;8.50;69.70;;;;;;5011585;28;20375;-73
2021/03/16 11:31:39;;;;;;;5.90;2.17;;;8.40;68.80;;;;;;5016227;28;20034;-74
2021/03/16 11:34:24;;;;;;;5.72;1.38;;;8.40;69.10;;;;;;5024337;28;20045;-73
2021/03/16 11:37:09;;;;;;;6.25;1.88;;;8.40;69.90;;;;;;5023133;28;20030;-74
2021/03/16 11:39:54;;;;;;;6.40;1.70;;;8.60;70.10;;;;;;5032763;28;20038;-74
2021/03/16 11:42:39;;;;;;;6.72;1.80;;;8.70;71.60;;;;;;5019715;28;20037;-78
2021/03/16 11:45:23;;;;;;;4.40;1.30;;;8.60;71.00;;;;;;5019310;28;20040;-75
2021/03/16 11:48:09;;;;;;;5.82;1.50;;;8.70;70.00;;;;;;5028154;28;20045;-75
2021/03/16 11:50:54;;;;;;;6.43;1.25;;;8.90;70.00;;;;;;5021494;28;20038;-75
2021/03/16 11:53:40;;;;;;;5.55;1.92;;;8.70;67.90;;;;;;5019144;28;20498;-75
2021/03/16 11:56:25;;;;;;;7.13;1.48;;;9.00;70.10;;;;;;5025958;28;20045;-75
2021/03/16 11:59:09;;;;;;;5.47;1.75;;;9.00;69.00;;;;;;5014643;28;20049;-75
2021/03/16 12:01:54;;;;;;;2.85;1.00;;;9.20;67.10;;;;;;5014719;28;20045;-75
2021/03/16 12:04:39;;;;;;;7.22;1.83;;;9.00;67.80;;;;;;5022698;28;20053;-75
2021/03/16 12:07:23;;;;;;;7.30;1.70;;;9.10;68.20;;;;;;5019252;28;20038;-75
2021/03/16 12:10:09;;;;;;;5.95;1.50;;;9.10;67.20;;;;;;5030905;28;20395;-75
2021/03/16 12:12:54;;;;;;;3.20;1.45;;;9.10;66.00;;;;;;5027633;28;20046;-75
2021/03/16 12:15:39;;;;;;;9.23;2.28;;;9.30;66.80;;;;;;5033668;28;20041;-75
2021/03/16 12:18:24;;;;;;;7.63;1.65;;;9.60;65.00;;;;;;5017166;28;20102;-75
2021/03/16 12:21:08;;;;;;;6.90;1.77;;;9.60;64.10;;;;;;5033591;28;20033;-75
2021/03/16 12:23:53;;;;;;;4.97;1.38;;;9.10;65.30;;;;;;5019441;28;20663;-75
2021/03/16 12:26:39;;;;;;;4.40;1.38;;;9.30;67.20;;;;;;5023883;28;20498;-75
2021/03/16 12:29:24;;;;;;;5.55;1.73;;;9.40;65.10;;;;;;5014500;28;20042;-75
2021/03/16 12:32:09;;;;;;;4.85;1.95;;;9.50;64.80;;;;;;5029051;28;20037;-75
2021/03/16 12:34:54;;;;;;;6.97;1.50;;;9.60;64.80;;;;;;5027018;28;20045;-75
2021/03/16 12:37:41;;;;;;;4.75;1.10;;;9.80;64.30;;;;;;5021248;28;20052;-76
2021/03/16 12:40:26;;;;;;;6.65;2.17;;;9.70;59.00;;;;;;5021370;28;20041;-75
2021/03/16 12:43:10;;;;;;;3.95;1.42;;;9.60;60.20;;;;;;5013154;28;20463;-75
2021/03/16 12:45:55;;;;;;;6.50;1.65;;;9.70;61.30;;;;;;5013621;28;20050;-75
2021/03/16 12:48:40;;;;;;;2.88;1.02;;;10.00;61.90;;;;;;5029403;28;20522;-75
2021/03/16 12:51:25;;;;;;;3.40;0.80;;;10.00;61.60;;;;;;5032500;28;20072;-75
2021/03/16 12:54:10;;;;;;;5.45;1.02;;;9.70;61.00;;;;;;5026912;28;20048;-76
2021/03/16 12:56:55;;;;;;;5.22;1.13;;;9.60;61.60;;;;;;5015449;28;20058;-75
2021/03/16 12:59:40;;;;;;;3.90;1.05;;;9.50;61.90;;;;;;5016881;28;20372;-76
2021/03/16 13:02:26;;;;;;;5.05;1.45;;;9.70;60.70;;;;;;5033206;28;20040;-75
2021/03/16 13:05:12;;;;;;;2.70;1.63;;;9.80;60.60;;;;;;5029535;28;20037;-75
2021/03/16 13:07:57;;;;;;;5.00;1.48;;;10.10;59.90;;;;;;5020263;28;20403;-75
2021/03/16 13:10:42;;;;;;;3.60;0.93;;;10.20;60.60;;;;;;5020829;28;20056;-75
2021/03/16 13:13:27;;;;;;;3.75;0.93;;;10.40;59.30;;;;;;5013629;28;20041;-74
2021/03/16 13:16:12;;;;;;;4.75;0.90;;;10.30;60.40;;;;;;5013468;28;20471;-74
2021/03/16 13:18:56;;;;;;;1.70;0.90;;;10.70;59.80;;;;;;5029439;28;20053;-74
2021/03/16 13:21:43;;;;;;;3.60;1.00;;;10.40;57.90;;;;;;5020511;28;20450;-75
2021/03/16 13:24:28;;;;;;;4.50;1.13;;;10.20;59.60;;;;;;5029694;28;20040;-74
2021/03/16 13:27:14;;;;;;;2.88;1.10;;;9.90;59.50;;;;;;5023028;28;20057;-75
2021/03/16 13:29:59;;;;;;;4.50;1.55;;;9.90;59.70;;;;;;5021347;28;20059;-75
2021/03/16 13:32:45;;;;;;;4.97;1.23;;;9.80;62.00;;;;;;5013181;28;20046;-75
2021/03/16 13:35:30;;;;;;;5.65;1.58;;;9.60;60.60;;;;;;5013463;28;20391;-75
2021/03/16 13:38:14;;;;;;;5.32;1.45;;;9.60;60.90;;;;;;5019732;28;20037;-75
2021/03/16 13:40:59;;;;;;;4.57;1.27;;;9.60;60.90;;;;;;5019794;28;20041;-75
2021/03/16 13:43:45;;;;;;;5.20;1.33;;;9.50;61.00;;;;;;5026478;28;20037;-75
2021/03/16 13:46:31;;;;;;;4.93;1.10;;;9.30;61.10;;;;;;5031199;28;20056;-74
2021/03/16 13:49:15;;;;;;;2.15;0.85;;;9.30;62.70;;;;;;5012723;28;20041;-74
2021/03/16 13:52:01;;;;;;;4.95;1.40;;;9.30;62.10;;;;;;5012170;28;20045;-74
2021/03/16 13:54:45;;;;;;;4.57;1.45;;;9.30;62.90;;;;;;5022678;28;20053;-74
2021/03/16 13:57:30;;;;;;;3.13;1.20;;;9.30;62.80;;;;;;5020148;28;20387;-74
2021/03/16 14:00:16;;;;;;;4.75;1.48;;;9.20;62.50;;;;;;5027045;28;20034;-73
2021/03/16 14:03:00;;;;;;;5.55;1.50;;;8.90;64.10;;;;;;5012459;28;20042;-73
2021/03/16 14:05:45;;;;;;;8.93;1.42;;;8.60;67.20;;;;;;5028720;28;20060;-73
2021/03/16 14:08:30;;;;;;;7.97;1.52;;;8.30;70.30;;;;;;5012760;28;20034;-73